Terminal Aerodrome Forecast
Issued by NWS

Home | Current Version | Previous Version | Text Only | Print | Product List | Glossary On
Versions: 1 2 3 4 5 6 7 8 9 10 11 12 13
000
FTUS41 KBTV 042325
TAFMSS
TAF
KMSS 042325Z 0500/0524 26007G15KT P6SM -SHRA OVC060
     FM050200 27008KT P6SM OVC040
     FM050700 30005KT P6SM SCT250=

USA.gov is the U.S. government's official web portal to all federal, state and local government web resources and services.